1871 Major Hurricane NOT_NAMED (1871278N11329)


IBTrACS version v04r00. Visit IBTrACS website for data access.
Please direct all questions to the IBTrACS Q and A forum

Storm track - Intensity - Wind Radii - Intensity Data - Source Data - All data

Summary Information

Storm ID 1871278N11329
Start Oct 5 06Z
Max Intensity 120 kt (Oct 9 18Z), 930 mb (Oct 10 00Z)
End Oct 11 09Z
ATCF IDs
Track status Best track data.
Spur track This storm is a spur track associated with the main storm: 1871283N23302

Storm track plot

Map of storm track

Intensity plots

Map of storm track

Radial wind information

No radial wind information for this storm


Position and Intensity Table

BASIN ISO_TIME_________ NATURE LAT LON MLC WIND MLC PRES
degrees north degrees east kts mb
NA 1871-10-05 06:00:00 TS 10.50 -31.00 35
NA 09:00:00 TS 10.90 -32.04 35
NA 12:00:00 TS 11.30 -33.10 35
NA 15:00:00 TS 11.70 -34.20 35
NA 18:00:00 TS 12.10 -35.30 35
NA 21:00:00 TS 12.50 -36.35 37
NA 1871-10-06 00:00:00 TS 12.90 -37.40 40
NA 03:00:00 TS 13.30 -38.50 40
NA 06:00:00 TS 13.70 -39.60 40
NA 09:00:00 TS 14.10 -40.65 40
NA 12:00:00 TS 14.50 -41.70 40
NA 15:00:00 TS 14.90 -42.80 42
NA 18:00:00 TS 15.30 -43.90 45
NA 21:00:00 TS 15.70 -44.95 45
NA 1871-10-07 00:00:00 TS 16.10 -46.00 45
NA 03:00:00 TS 16.50 -47.10 45
NA 06:00:00 TS 16.90 -48.20 45
NA 09:00:00 TS 17.30 -49.26 47
NA 12:00:00 TS 17.70 -50.30 50
NA 15:00:00 TS 18.10 -51.34 50
NA 18:00:00 TS 18.50 -52.40 50
NA 21:00:00 TS 18.90 -53.52 52
NA 1871-10-08 00:00:00 TS 19.30 -54.60 55
NA 03:00:00 TS 19.70 -55.55 57
NA 06:00:00 TS 20.10 -56.50 60
NA 09:00:00 TS 20.49 -57.58 65
NA 12:00:00 TS 20.90 -58.70 70
NA 15:00:00 TS 21.34 -59.85 75
NA 18:00:00 TS 21.80 -60.90 80
NA 21:00:00 TS 22.25 -61.76 85
NA 1871-10-09 00:00:00 TS 22.70 -62.50 90
NA 03:00:00 TS 23.15 -63.22 95
NA 06:00:00 NR 23.60 -63.90 100
NA 09:00:00 NR 24.05 -64.60 105
NA 12:00:00 NR 24.50 -65.30 110
NA 15:00:00 NR 24.95 -66.02 115
NA 18:00:00 NR 25.40 -66.70 120
NA 21:00:00 NR 25.86 -67.35 120
NA 1871-10-10 00:00:00 NR 26.30 -67.90 120 930
NA 03:00:00 NR 26.70 -68.43 117
NA 06:00:00 NR 27.10 -68.70 115
NA 09:00:00 NR 27.55 -68.42 112
NA 12:00:00 NR 28.00 -68.10 110
NA 15:00:00 NR 28.42 -68.27 107
NA 18:00:00 NR 28.80 -68.60 105
NA 21:00:00 NR 29.10 -68.81 102
NA 1871-10-11 00:00:00 NR 29.40 -69.00 100
NA 03:00:00 NR 29.78 -69.19 97
NA 06:00:00 TS 30.20 -69.40 95
NA 09:00:00 TS 30.59 -69.65

Source Information

Agency Information
USA
TOKYO
CMA
HKO
NEWDELHI
REUNION
BOM
NADI
WELLINGTON
DS824
TD9636
TD9635
NEUMANN
MLC

All available IBTrACS Data

SEASON BASIN SUBBASIN ISO_TIME_________ NATURE LAT LON DIST2LAND LANDFALL IFLAG USA SSHS MLC LAT MLC LON MLC CLASS MLC WIND MLC PRES STORM SPEED STORM DIR
Year degrees north degrees east km km 1 degrees north degrees east kts mb kts degrees
1871 NA NA 1871-10-05 06:00:00 TS 10.50 -31.00 1538 1538 _____________O -1 10.50 -31.00 TS 35 22 291
1871 NA NA 09:00:00 TS 10.90 -32.04 1629 1629 _____________P -1 10.90 -32.04 TS 35 22 291
1871 NA NA 12:00:00 TS 11.30 -33.10 1732 1732 _____________O -1 11.30 -33.10 TS 35 23 291
1871 NA NA 15:00:00 TS 11.70 -34.20 1749 1744 _____________P -1 11.70 -34.20 TS 35 23 290
1871 NA NA 18:00:00 TS 12.10 -35.30 1752 1749 _____________O -1 12.10 -35.30 TS 35 23 291
1871 NA NA 21:00:00 TS 12.50 -36.35 1765 1763 _____________P -1 12.50 -36.35 TS 37 22 291
1871 NA NA 1871-10-06 00:00:00 TS 12.90 -37.40 1789 1739 _____________O -1 12.90 -37.40 TS 40 22 291
1871 NA NA 03:00:00 TS 13.30 -38.50 1730 1669 _____________P -1 13.30 -38.50 TS 40 23 290
1871 NA NA 06:00:00 TS 13.70 -39.60 1660 1607 _____________O -1 13.70 -39.60 TS 40 22 291
1871 NA NA 09:00:00 TS 14.10 -40.65 1599 1560 _____________P -1 14.10 -40.65 TS 40 22 291
1871 NA NA 12:00:00 TS 14.50 -41.70 1553 1513 _____________O -1 14.50 -41.70 TS 40 22 291
1871 NA NA 15:00:00 TS 14.90 -42.80 1508 1477 _____________P -1 14.90 -42.80 TS 42 23 291
1871 NA NA 18:00:00 TS 15.30 -43.90 1474 1443 _____________O -1 15.30 -43.90 TS 45 22 291
1871 NA NA 21:00:00 TS 15.70 -44.95 1439 1419 _____________P -1 15.70 -44.95 TS 45 22 292
1871 NA NA 1871-10-07 00:00:00 TS 16.10 -46.00 1417 1399 _____________O -1 16.10 -46.00 TS 45 22 291
1871 NA NA 03:00:00 TS 16.50 -47.10 1399 1388 _____________P -1 16.50 -47.10 TS 45 23 291
1871 NA NA 06:00:00 TS 16.90 -48.20 1392 1380 _____________O -1 16.90 -48.20 TS 45 22 291
1871 NA NA 09:00:00 TS 17.30 -49.26 1383 1379 _____________P -1 17.30 -49.26 TS 47 22 292
1871 NA NA 12:00:00 TS 17.70 -50.30 1387 1332 _____________O -1 17.70 -50.30 TS 50 21 292
1871 NA NA 15:00:00 TS 18.10 -51.34 1332 1279 _____________P -1 18.10 -51.34 TS 50 22 292
1871 NA NA 18:00:00 TS 18.50 -52.40 1271 1221 _____________O -1 18.50 -52.40 TS 50 22 291
1871 NA NA 21:00:00 TS 18.90 -53.52 1221 1172 _____________P -1 18.90 -53.52 TS 52 22 291
1871 NA NA 1871-10-08 00:00:00 TS 19.30 -54.60 1161 1071 _____________O -1 19.30 -54.60 TS 55 21 293
1871 NA NA 03:00:00 TS 19.70 -55.55 1060 984 _____________P -1 19.70 -55.55 TS 57 20 294
1871 NA NA 06:00:00 TS 20.10 -56.50 973 878 _____________O -1 20.10 -56.50 TS 60 21 293
1871 NA NA 09:00:00 TS 20.49 -57.58 870 784 _____________P -1 20.49 -57.58 TS 65 22 291
1871 NA NA 12:00:00 TS 20.90 -58.70 774 687 _____________O -1 20.90 -58.70 HU 70 23 292
1871 NA NA 15:00:00 TS 21.34 -59.85 687 622 _____________P -1 21.34 -59.85 HU 75 22 294
1871 NA NA 18:00:00 TS 21.80 -60.90 620 587 _____________O -1 21.80 -60.90 HU 80 20 297
1871 NA NA 21:00:00 TS 22.25 -61.76 580 573 _____________P -1 22.25 -61.76 HU 85 17 301
1871 NA NA 1871-10-09 00:00:00 TS 22.70 -62.50 579 573 _____________O -1 22.70 -62.50 HU 90 16 304
1871 NA NA 03:00:00 TS 23.15 -63.22 581 581 _____________P -1 23.15 -63.22 HU 95 16 305
1871 NA NA 06:00:00 NR 23.60 -63.90 607 604 _____________O -1 23.60 -63.90 MH 100 16 305
1871 NA NA 09:00:00 NR 24.05 -64.60 634 634 _____________P -1 24.05 -64.60 MH 105 16 305
1871 NA NA 12:00:00 NR 24.50 -65.30 682 682 _____________O -1 24.50 -65.30 MH 110 16 305
1871 NA NA 15:00:00 NR 24.95 -66.02 712 712 _____________P -1 24.95 -66.02 MH 115 16 305
1871 NA NA 18:00:00 NR 25.40 -66.70 731 731 _____________O -1 25.40 -66.70 MH 120 15 307
1871 NA NA 21:00:00 NR 25.86 -67.35 756 752 _____________P -1 25.86 -67.35 MH 120 14 310
1871 NA NA 1871-10-10 00:00:00 NR 26.30 -67.90 770 763 _____________O -1 26.30 -67.90 MH 120 930 13 311
1871 NA NA 03:00:00 NR 26.70 -68.43 771 765 _____________P -1 26.70 -68.43 MH 117 11 318
1871 NA NA 06:00:00 NR 27.10 -68.70 790 790 _____________O -1 27.10 -68.70 MH 115 9 0
1871 NA NA 09:00:00 NR 27.55 -68.42 853 853 _____________P -1 27.55 -68.42 MH 112 10 31
1871 NA NA 12:00:00 NR 28.00 -68.10 906 906 _____________O -1 28.00 -68.10 MH 110 9 9
1871 NA NA 15:00:00 NR 28.42 -68.27 933 933 _____________P -1 28.42 -68.27 MH 107 9 331
1871 NA NA 18:00:00 NR 28.80 -68.60 957 956 _____________O -1 28.80 -68.60 MH 105 8 325
1871 NA NA 21:00:00 NR 29.10 -68.81 956 919 _____________P -1 29.10 -68.81 MH 102 7 330
1871 NA NA 1871-10-11 00:00:00 NR 29.40 -69.00 919 875 _____________O -1 29.40 -69.00 MH 100 8 334
1871 NA NA 03:00:00 NR 29.78 -69.19 875 831 _____________P -1 29.78 -69.20 MH 97 9 337
1871 NA NA 06:00:00 TS 30.20 -69.40 831 787 _____________O -1 30.20 -69.40 HU 95 9 334
1871 NA NA 09:00:00 TS 30.59 -69.65 780 ______________ -1 HU 9 331